Portal, Georgia
Current Conditions -  °F | °C
As of 5:15 PM on Monday 24 Nov 2014 (Local Time) from KTBR Reporting Station
Thunderstorm Thunderstorm  
Wind Chill: 18°   Ceiling: 9500
Heat Index: 18°   Visibility: 10mi
Dew Point: 18°   Wind: 0mph
Humidity: 100%   Direction: NA
Pressure: 29.86"   Gusts: NA
Location:  32.54°N, 81.93°W
Report Text: KTBR 242215Z AUTO 00000KT 10SM -TSRA SCT060 SCT075 BKN095 18/18 A2986 RMK AO2 LTG DSNT ALQS T01770177
Loading
Personal Weather Stations






























Interactive Weather Map New forecast layout! Learn more

10-Day Weather Forecast

Advertisements
Track Severe Weather on mobile